Time;durP1;ratioP1;P1;durP2;ratioP2;P2;SDS_P1;SDS_P2;PMS_P1;PMS_P2;Temp;Humidity;BMP_temperature;BMP_pressure;BME280_temperature;BME280_humidity;BME280_pressure;Samples;Min_cycle;Max_cycle;Signal;HPM_P1;HPM_P2
2023/10/16 00:01:27;;;;;;;6.15;2.13;;;;;;;4.68;83.54;101420.00;7395768;19;20006;-65
2023/10/16 00:03:56;;;;;;;5.18;1.33;;;;;;;4.67;83.66;101427.78;7396155;19;20343;-65
2023/10/16 00:06:27;;;;;;;6.88;1.20;;;;;;;4.65;83.81;101421.69;7392142;19;20516;-64
2023/10/16 00:09:03;;;;;;;6.07;1.70;;;;;;;4.62;83.91;101427.72;7394186;19;20022;-64
2023/10/16 00:11:31;;;;;;;5.20;1.63;;;;;;;4.63;84.01;101423.41;7396059;19;20467;-64
2023/10/16 00:14:00;;;;;;;3.95;1.30;;;;;;;4.60;83.73;101419.03;7393437;19;20469;-65
2023/10/16 00:16:32;;;;;;;10.95;1.45;;;;;;;4.58;84.02;101425.94;7394714;19;20015;-65
2023/10/16 00:19:09;;;;;;;5.85;1.20;;;;;;;4.58;84.10;101431.13;7393652;19;20014;-66
2023/10/16 00:21:43;;;;;;;7.68;1.70;;;;;;;4.56;84.22;101432.81;7395062;19;20010;-65
2023/10/16 00:24:12;;;;;;;3.65;1.63;;;;;;;4.54;84.17;101425.00;7394980;19;20024;-66
2023/10/16 00:26:48;;;;;;;6.88;1.80;;;;;;;4.52;84.17;101426.72;7395051;19;20073;-65
2023/10/16 00:29:23;;;;;;;4.28;1.60;;;;;;;4.50;84.50;101428.44;7394870;19;20015;-65
2023/10/16 00:31:51;;;;;;;;;;;;;;;4.48;85.45;101424.06;7394313;19;20022;-65
2023/10/16 00:34:22;;;;;;;10.38;1.33;;;;;;;4.44;84.76;101420.53;7395039;19;19937;-65
2023/10/16 00:36:54;;;;;;;5.43;1.70;;;;;;;4.44;84.26;101427.47;7394338;19;20115;-65
2023/10/16 00:39:26;;;;;;;4.20;1.15;;;;;;;4.42;84.29;101430.03;7395314;19;20021;-65
2023/10/16 00:41:57;;;;;;;5.10;1.15;;;;;;;4.39;84.57;101430.00;7394515;19;20537;-65
2023/10/16 00:44:33;;;;;;;12.13;1.30;;;;;;;4.36;84.50;101420.44;7393181;19;20029;-65
2023/10/16 00:47:04;;;;;;;5.63;1.52;;;;;;;4.35;84.67;101426.47;7394714;19;20018;-65
2023/10/16 00:49:34;;;;;;;4.72;1.10;;;;;;;4.33;84.57;101422.09;7394332;19;20390;-64
2023/10/16 00:52:06;;;;;;;5.55;1.45;;;;;;;4.32;84.74;101420.34;7395477;19;20026;-65
2023/10/16 00:54:39;;;;;;;2.72;0.82;;;;;;;4.30;84.79;101419.47;7392744;19;20026;-65
2023/10/16 00:57:07;;;;;;;5.13;1.40;;;;;;;4.27;84.82;101420.28;7393630;19;20018;-65
2023/10/16 00:59:36;;;;;;;10.50;1.23;;;;;;;4.24;85.39;101415.06;7394358;19;20090;-66
2023/10/16 01:02:09;;;;;;;11.10;1.30;;;;;;;4.21;85.25;101412.41;7394344;19;20007;-65
2023/10/16 01:04:40;;;;;;;6.30;1.30;;;;;;;4.20;85.21;101421.06;7393850;19;20481;-65
2023/10/16 01:07:14;;;;;;;7.00;1.48;;;;;;;4.17;85.89;101413.19;7394171;19;20014;-65
2023/10/16 01:09:42;;;;;;;5.25;1.05;;;;;;;4.14;85.32;101414.03;7394663;19;20358;-66
2023/10/16 01:12:12;;;;;;;8.05;1.30;;;;;;;4.13;85.84;101411.41;7393524;19;20010;-66
2023/10/16 01:14:42;;;;;;;2.60;1.00;;;;;;;4.07;85.75;101407.88;7394713;19;20378;-64
2023/10/16 01:17:12;;;;;;;6.57;1.10;;;;;;;4.07;85.80;101410.47;7392578;19;20007;-64
2023/10/16 01:19:43;;;;;;;4.65;1.65;;;;;;;4.05;85.95;101413.91;7399690;19;20034;-65
2023/10/16 01:22:16;;;;;;;7.40;1.30;;;;;;;4.04;86.28;101414.75;7401575;19;20018;-65
2023/10/16 01:24:48;;;;;;;5.47;1.52;;;;;;;4.01;86.28;101412.97;7401535;19;20082;-65
2023/10/16 01:27:26;;;;;;;5.05;1.30;;;;;;;3.99;86.35;101419.84;7400605;19;20018;-64
2023/10/16 01:29:56;;;;;;;6.07;1.30;;;;;;;3.97;86.47;101407.69;7400596;19;20010;-64
2023/10/16 01:32:25;;;;;;;4.70;1.50;;;;;;;3.95;86.48;101410.28;7401355;19;20078;-64
2023/10/16 01:35:01;;;;;;;7.07;1.27;;;;;;;3.94;86.62;101415.44;7400745;19;20018;-64
2023/10/16 01:37:30;;;;;;;5.82;1.50;;;;;;;3.91;86.65;101411.94;7398777;19;20030;-66
2023/10/16 01:42:43;;;;;;;5.93;1.70;;;;;;;3.87;86.81;101410.16;7397848;19;20021;-64
2023/10/16 01:45:12;;;;;;;5.35;1.50;;;;;;;3.86;87.00;101404.94;7400020;19;20077;-65
2023/10/16 01:47:41;;;;;;;6.38;1.23;;;;;;;3.84;87.22;101407.50;7399118;19;20041;-65
2023/10/16 01:50:17;;;;;;;2.78;1.40;;;;;;;3.83;87.39;101407.47;7397768;19;20010;-64
2023/10/16 01:52:45;;;;;;;9.35;1.55;;;;;;;3.79;87.60;101410.88;7401799;19;20011;-64
2023/10/16 01:55:18;;;;;;;7.47;2.00;;;;;;;3.80;87.45;101412.63;7399187;19;20387;-65
2023/10/16 01:57:47;;;;;;;4.95;1.52;;;;;;;3.79;87.87;101418.66;7399816;19;20019;-64
2023/10/16 02:00:24;;;;;;;5.28;1.58;;;;;;;3.78;87.73;101411.72;7397534;19;20010;-64
2023/10/16 02:02:52;;;;;;;4.70;1.67;;;;;;;3.76;87.78;101414.28;7399427;19;20491;-64
2023/10/16 02:05:21;;;;;;;9.38;1.45;;;;;;;3.75;87.92;101415.13;7399692;19;20070;-65
2023/10/16 02:07:56;;;;;;;9.48;1.45;;;;;;;3.74;88.06;101421.16;7397155;19;20015;-65
2023/10/16 02:10:28;;;;;;;4.53;1.35;;;;;;;3.73;88.18;101416.84;7397696;19;20018;-64
2023/10/16 02:12:56;;;;;;;4.40;1.50;;;;;;;3.72;88.28;101415.94;7397100;19;20086;-64
2023/10/16 02:15:25;;;;;;;4.38;1.17;;;;;;;3.71;88.46;101415.94;7399341;19;20081;-64
2023/10/16 02:17:54;;;;;;;7.57;1.38;;;;;;;3.71;88.57;101421.13;7397086;19;20032;-65
2023/10/16 02:20:26;;;;;;;7.22;1.50;;;;;;;3.71;88.50;101413.34;7396466;19;20526;-63
2023/10/16 02:22:55;;;;;;;3.55;1.13;;;;;;;3.70;88.84;101407.28;7399497;19;20018;-64
2023/10/16 02:25:23;;;;;;;8.30;1.40;;;;;;;3.71;88.65;101397.75;7396876;19;20409;-64
2023/10/16 02:27:54;;;;;;;5.53;1.42;;;;;;;3.70;88.53;101406.38;7397635;19;20021;-64
2023/10/16 02:30:28;;;;;;;3.83;1.20;;;;;;;3.69;88.46;101392.56;7397853;19;20010;-64
2023/10/16 02:33:10;;;;;;;4.85;1.77;;;;;;;3.69;88.66;101410.72;7399403;19;20111;-64
2023/10/16 02:35:42;;;;;;;10.95;2.50;;;;;;;3.69;88.88;101409.81;7399148;19;20018;-64
2023/10/16 02:38:12;;;;;;;10.32;1.85;;;;;;;3.69;88.78;101415.91;7397127;19;20021;-64
2023/10/16 02:40:43;;;;;;;8.02;1.73;;;;;;;3.69;88.83;101415.00;7398812;19;20018;-64
2023/10/16 02:43:18;;;;;;;5.15;1.30;;;;;;;3.67;88.71;101415.00;7398575;19;20039;-64
2023/10/16 02:45:51;;;;;;;4.97;1.38;;;;;;;3.67;89.15;101419.31;7398905;19;20011;-64
2023/10/16 02:48:20;;;;;;;10.65;2.13;;;;;;;3.66;89.13;101423.63;7396410;19;20021;-64
2023/10/16 02:50:50;;;;;;;3.95;1.60;;;;;;;3.65;89.54;101421.91;7396020;19;20014;-64
2023/10/16 02:53:22;;;;;;;6.25;1.58;;;;;;;3.65;89.70;101424.50;7397975;19;20006;-65
2023/10/16 02:55:53;;;;;;;8.15;1.80;;;;;;;3.64;89.25;101422.75;7398214;19;20033;-64
2023/10/16 02:58:24;;;;;;;5.35;1.67;;;;;;;3.65;89.07;101423.59;7395642;19;20010;-64
2023/10/16 03:00:53;;;;;;;8.25;1.50;;;;;;;3.63;89.26;101427.88;7397816;19;20006;-64
2023/10/16 03:03:24;;;;;;;2.30;1.80;;;;;;;3.63;89.99;101430.47;7397548;19;20014;-64
2023/10/16 03:05:52;;;;;;;5.00;1.77;;;;;;;3.62;89.44;101427.03;7397992;19;20018;-64
2023/10/16 03:08:22;;;;;;;4.35;1.40;;;;;;;3.62;89.64;101427.03;7395792;19;20031;-64
2023/10/16 03:10:51;;;;;;;4.07;1.60;;;;;;;3.60;89.47;101420.91;7397408;19;20075;-64
2023/10/16 03:13:20;;;;;;;4.53;1.23;;;;;;;3.60;89.84;101423.50;7395860;19;20035;-63
2023/10/16 03:15:59;;;;;;;3.85;1.20;;;;;;;3.57;89.71;101419.13;7395484;19;20045;-65
2023/10/16 03:18:28;;;;;;;7.82;1.40;;;;;;;3.57;90.10;101423.47;7395294;19;20010;-66
2023/10/16 03:21:05;;;;;;;6.18;1.33;;;;;;;3.57;89.75;101426.94;7396692;19;20010;-64
2023/10/16 03:23:34;;;;;;;5.35;1.20;;;;;;;3.55;89.67;101426.03;7397032;19;20427;-64
2023/10/16 03:26:02;;;;;;;5.80;1.50;;;;;;;3.54;89.85;101429.47;7396601;19;20077;-64
2023/10/16 03:28:31;;;;;;;4.43;1.52;;;;;;;3.54;89.82;101428.63;7395104;19;20014;-66
2023/10/16 03:31:05;;;;;;;4.82;1.30;;;;;;;3.52;89.56;101438.09;7394898;19;20015;-64
2023/10/16 03:33:35;;;;;;;6.80;1.25;;;;;;;3.51;89.97;101431.13;7396974;19;20014;-64
2023/10/16 03:36:09;;;;;;;3.70;1.20;;;;;;;3.49;89.82;101436.31;7396758;19;20476;-65
2023/10/16 03:38:37;;;;;;;6.53;1.40;;;;;;;3.50;89.82;101437.16;7394810;19;20018;-65
2023/10/16 03:41:12;;;;;;;4.00;1.48;;;;;;;3.49;89.94;101435.41;7391737;19;20362;-65
2023/10/16 03:43:42;;;;;;;7.05;1.50;;;;;;;3.48;90.37;101441.47;7395605;19;20480;-65
2023/10/16 03:46:13;;;;;;;4.32;1.10;;;;;;;3.46;90.37;101438.81;7394511;19;20010;-65
2023/10/16 03:48:44;;;;;;;6.63;1.75;;;;;;;3.45;90.44;101426.72;7395063;19;20101;-65
2023/10/16 03:51:16;;;;;;;7.32;1.75;;;;;;;3.43;90.35;101428.41;7394368;19;20388;-65
2023/10/16 03:53:44;;;;;;;3.47;1.52;;;;;;;3.43;90.35;101428.41;7396058;19;20028;-65
2023/10/16 03:56:13;;;;;;;6.18;1.35;;;;;;;3.41;90.37;101424.91;7394286;19;20065;-65
2023/10/16 03:58:44;;;;;;;6.28;1.70;;;;;;;3.41;90.53;101430.09;7394342;19;20018;-65
2023/10/16 04:01:21;;;;;;;4.00;1.20;;;;;;;3.40;90.73;101430.97;7395700;19;20011;-65
2023/10/16 04:03:50;;;;;;;3.83;1.25;;;;;;;3.38;90.48;101430.91;7396641;19;20010;-65
2023/10/16 04:06:21;;;;;;;7.82;1.55;;;;;;;3.37;90.75;101420.50;7395401;19;20020;-65
2023/10/16 04:08:50;;;;;;;7.20;1.40;;;;;;;3.35;90.61;101425.66;7392725;19;20014;-65
2023/10/16 04:11:19;;;;;;;7.35;1.48;;;;;;;3.37;90.93;101433.47;7395134;19;20495;-65
2023/10/16 04:13:50;;;;;;;8.95;1.50;;;;;;;3.35;90.99;101424.78;7394013;19;20035;-65
2023/10/16 04:16:42;;;;;;;8.15;1.95;;;;;;;3.34;90.93;101431.69;7395593;19;20019;-66
2023/10/16 04:21:54;;;;;;;4.32;1.38;;;;;;;3.34;91.13;101430.84;7392784;19;20498;-65
2023/10/16 04:24:30;;;;;;;4.57;2.33;;;;;;;3.33;91.14;101432.53;7393528;19;20019;-65
2023/10/16 04:27:29;;;;;;;9.45;1.67;;;;;;;3.32;90.99;101428.19;7395593;19;20017;-65
2023/10/16 04:32:55;;;;;;;7.93;1.95;;;;;;;3.29;90.79;101425.56;7391319;19;20051;-65
2023/10/16 04:35:29;;;;;;;7.25;1.90;;;;;;;3.26;90.91;101426.38;7394834;19;20010;-65
2023/10/16 04:38:27;;;;;;;10.27;2.30;;;;;;;3.24;91.16;101425.44;7393349;19;20025;-65
2023/10/16 04:43:49;;;;;;;5.82;1.90;;;;;;;3.18;90.81;101421.88;7394285;19;20011;-65
2023/10/16 04:46:17;;;;;;;4.88;1.45;;;;;;;3.15;90.98;101421.84;7394227;19;20019;-66
2023/10/16 04:48:51;;;;;;;5.68;1.85;;;;;;;3.13;90.94;101428.69;7392621;19;20011;-65
2023/10/16 04:51:19;;;;;;;;;;;;;;;3.09;91.37;101426.03;7394305;19;20022;-66
2023/10/16 04:53:58;;;;;;;5.38;1.58;;;;;;;3.07;91.02;101435.50;7400639;19;19918;-65
2023/10/16 04:56:57;;;;;;;7.65;1.85;;;;;;;3.06;91.03;101428.56;7401876;19;20014;-65
2023/10/16 05:02:10;;;;;;;7.95;1.90;;;;;;;3.04;91.11;101425.06;7396959;19;20034;-65
2023/10/16 05:07:37;;;;;;;6.33;2.00;;;;;;;3.02;91.04;101426.75;7399365;19;20082;-63
2023/10/16 05:15:51;;;;;;;5.88;1.98;;;;;;;2.99;91.31;101424.09;7400747;19;20070;-65
2023/10/16 05:18:42;;;;;;;7.88;2.30;;;;;;;3.00;91.76;101433.63;7397631;19;20018;-66
2023/10/16 06:15:24;;;;;;;9.95;2.60;;;;;;;3.70;93.11;101446.22;7399060;19;20497;-65
2023/10/16 06:17:53;;;;;;;7.68;2.75;;;;;;;3.77;92.83;101443.69;7395824;19;20010;-65
2023/10/16 06:20:22;;;;;;;4.93;2.17;;;;;;;3.81;93.07;101445.53;7395832;19;20377;-64
2023/10/16 06:22:52;;;;;;;4.18;1.95;;;;;;;3.86;92.81;101446.47;7396494;19;20018;-65
2023/10/16 06:25:28;;;;;;;5.47;2.15;;;;;;;3.90;92.96;101456.06;7397220;19;20022;-65
2023/10/16 06:27:57;;;;;;;5.53;1.52;;;;;;;3.94;92.60;101451.78;7396760;19;20010;-65
2023/10/16 06:30:28;;;;;;;9.88;2.22;;;;;;;3.97;92.26;101447.53;7399209;19;20086;-65
2023/10/16 06:32:56;;;;;;;11.38;2.63;;;;;;;4.00;92.18;101454.50;7396229;19;20014;-65
2023/10/16 06:35:25;;;;;;;8.98;2.00;;;;;;;4.02;92.57;101453.66;7398542;19;20074;-65
2023/10/16 06:37:55;;;;;;;9.38;2.28;;;;;;;4.04;92.37;101449.38;7396768;19;20033;-64
2023/10/16 06:40:27;;;;;;;7.75;2.50;;;;;;;4.06;92.25;101454.59;7398261;19;20074;-65
2023/10/16 06:43:09;;;;;;;12.25;2.70;;;;;;;4.09;91.87;101457.22;7398922;19;20018;-65
2023/10/16 06:45:49;;;;;;;11.82;2.38;;;;;;;4.13;92.13;101458.16;7396258;19;20436;-65
2023/10/16 06:48:18;;;;;;;6.60;2.42;;;;;;;4.15;91.97;101459.94;7396049;19;20024;-65
2023/10/16 06:50:53;;;;;;;7.03;2.25;;;;;;;4.18;92.46;101465.19;7396798;19;20019;-65
2023/10/16 06:53:22;;;;;;;6.88;2.33;;;;;;;4.22;92.04;101464.38;7395992;19;20021;-65
2023/10/16 06:55:53;;;;;;;7.15;2.75;;;;;;;4.28;92.15;101473.13;7397469;19;20007;-65
2023/10/16 06:58:22;;;;;;;5.55;2.05;;;;;;;4.32;92.18;101473.22;7396331;19;20014;-65
2023/10/16 07:00:52;;;;;;;6.72;1.80;;;;;;;4.37;92.14;101471.56;7395480;19;20015;-65
2023/10/16 07:03:20;;;;;;;8.48;2.10;;;;;;;4.45;92.03;101470.78;7397352;19;20010;-65
2023/10/16 07:05:49;;;;;;;4.82;1.90;;;;;;;4.54;91.74;101464.00;7397185;19;20393;-65
2023/10/16 07:08:22;;;;;;;4.22;1.80;;;;;;;4.63;91.86;101458.06;7395334;19;20018;-65
2023/10/16 07:10:56;;;;;;;5.72;1.83;;;;;;;4.75;91.49;101479.88;7397174;19;20014;-70
2023/10/16 07:13:31;;;;;;;6.75;1.88;;;;;;;4.84;91.52;101457.50;7395924;19;20339;-70
2023/10/16 07:16:02;;;;;;;12.40;2.17;;;;;;;4.97;90.93;101466.31;7396176;19;20020;-67
2023/10/16 07:18:33;;;;;;;8.75;2.08;;;;;;;5.09;90.63;101464.72;7394507;19;20014;-67
2023/10/16 07:21:07;;;;;;;4.65;1.77;;;;;;;5.18;90.07;101475.25;7396151;19;20029;-67
2023/10/16 07:23:37;;;;;;;6.60;1.75;;;;;;;5.27;89.47;101475.38;7394993;19;20015;-66
2023/10/16 07:26:10;;;;;;;4.53;2.38;;;;;;;5.34;88.95;101479.78;7395255;19;20010;-67
2023/10/16 07:28:40;;;;;;;7.68;1.73;;;;;;;5.42;88.91;101485.09;7393717;19;20086;-67
2023/10/16 07:31:10;;;;;;;6.35;1.80;;;;;;;5.48;88.68;101494.69;7395614;19;20030;-65
2023/10/16 07:33:39;;;;;;;5.00;1.55;;;;;;;5.54;88.16;101479.13;7395963;19;20014;-66
2023/10/16 07:36:14;;;;;;;5.88;1.63;;;;;;;5.58;87.29;101486.13;7397500;19;20022;-66
2023/10/16 07:38:43;;;;;;;7.30;1.60;;;;;;;5.61;87.76;101480.97;7394077;19;20031;-67
2023/10/16 07:41:18;;;;;;;3.13;1.52;;;;;;;5.60;87.16;101479.19;7395702;19;20015;-67
2023/10/16 07:43:48;;;;;;;8.07;1.65;;;;;;;5.63;87.30;101466.22;7395529;19;20481;-67
2023/10/16 07:46:27;;;;;;;8.25;1.40;;;;;;;5.63;87.20;101471.41;7395507;19;20484;-67
2023/10/16 07:48:56;;;;;;;5.75;1.83;;;;;;;5.64;87.13;101475.78;7393730;19;20011;-67
2023/10/16 07:51:28;;;;;;;10.90;1.98;;;;;;;5.66;87.43;101474.06;7395467;19;20358;-67
2023/10/16 07:53:57;;;;;;;8.55;1.55;;;;;;;5.69;87.27;101476.69;7393936;19;20011;-67
2023/10/16 07:56:28;;;;;;;8.95;1.85;;;;;;;5.69;86.92;101471.47;7395062;19;20357;-67
2023/10/16 07:59:08;;;;;;;5.32;1.95;;;;;;;5.72;86.93;101473.25;7392851;19;20544;-67
2023/10/16 08:01:57;;;;;;;5.80;1.67;;;;;;;5.74;86.90;101475.84;7393583;19;20035;-67
2023/10/16 08:04:37;;;;;;;4.80;1.75;;;;;;;5.75;86.75;101470.69;7394471;19;20011;-67
2023/10/16 08:07:16;;;;;;;3.80;1.45;;;;;;;5.76;86.72;101469.78;7394522;19;20011;-67
2023/10/16 08:09:48;;;;;;;6.75;2.08;;;;;;;5.79;86.46;101475.06;7394486;19;20035;-67
2023/10/16 08:12:35;;;;;;;5.78;1.75;;;;;;;5.83;86.48;101476.81;7397423;19;20014;-67
2023/10/16 08:15:08;;;;;;;5.50;1.92;;;;;;;5.88;86.55;101474.28;7395550;19;20014;-66
2023/10/16 08:17:38;;;;;;;10.07;2.10;;;;;;;5.93;86.42;101482.13;7394119;19;20014;-67
2023/10/16 08:20:10;;;;;;;6.10;1.70;;;;;;;5.97;86.42;101476.94;7393345;19;20014;-67
2023/10/16 08:22:46;;;;;;;9.50;1.92;;;;;;;6.02;85.97;101480.50;7396371;19;20011;-66
2023/10/16 08:25:30;;;;;;;4.25;1.67;;;;;;;6.08;85.85;101486.63;7394740;19;20074;-67
2023/10/16 08:30:53;;;;;;;3.40;1.48;;;;;;;6.15;85.44;101499.72;7409310;19;20074;-67
2023/10/16 08:33:30;;;;;;;8.30;2.08;;;;;;;6.21;85.75;101491.09;7408381;19;20006;-67
2023/10/16 08:36:00;;;;;;;5.72;2.35;;;;;;;6.29;85.49;101501.56;7408513;19;20065;-66
2023/10/16 08:38:32;;;;;;;7.15;2.70;;;;;;;6.36;85.21;101506.84;7406800;19;20018;-66
2023/10/16 08:41:14;;;;;;;4.10;2.17;;;;;;;6.46;85.03;101504.31;7409008;19;20015;-66
2023/10/16 08:44:03;;;;;;;5.82;2.17;;;;;;;6.57;85.22;101505.28;7408952;19;20018;-66
2023/10/16 08:46:34;;;;;;;5.53;2.35;;;;;;;6.68;84.99;101507.94;7408307;19;20029;-67
2023/10/16 08:49:08;;;;;;;8.70;1.77;;;;;;;6.78;84.70;101507.13;7406139;19;20015;-67
2023/10/16 08:51:37;;;;;;;6.40;1.80;;;;;;;6.84;84.09;101496.75;7406941;19;20086;-66
2023/10/16 08:54:35;;;;;;;6.85;1.85;;;;;;;6.90;83.63;101503.75;7411204;19;20011;-66
2023/10/16 08:56:58;;;;;;;8.45;1.88;;;;;;;6.96;83.38;101497.66;7407098;19;20373;-67
2023/10/16 08:59:29;;;;;;;7.43;1.90;;;;;;;7.00;83.45;101504.66;7407716;19;20021;-67
2023/10/16 09:02:21;;;;;;;4.57;1.63;;;;;;;7.05;83.40;101496.84;7407797;19;20010;-67
2023/10/16 09:04:52;;;;;;;6.55;1.98;;;;;;;7.12;83.27;101503.84;7407904;19;20028;-66
2023/10/16 09:07:23;;;;;;;5.40;1.80;;;;;;;7.16;83.42;101503.84;7408467;19;20015;-67
2023/10/16 09:09:53;;;;;;;6.97;2.10;;;;;;;7.22;82.31;101510.00;7407796;19;20485;-67
2023/10/16 09:12:26;;;;;;;6.30;1.73;;;;;;;7.27;82.72;101514.34;7407284;19;20477;-67
2023/10/16 09:15:16;;;;;;;8.23;2.33;;;;;;;7.33;82.52;101508.31;7406026;19;20034;-67
2023/10/16 09:17:45;;;;;;;4.97;1.60;;;;;;;7.37;82.31;101506.53;7405096;19;20484;-69
2023/10/16 09:20:16;;;;;;;5.65;1.75;;;;;;;7.40;82.37;101510.03;7405496;19;20014;-68
2023/10/16 09:22:46;;;;;;;4.22;1.52;;;;;;;7.45;82.32;101504.84;7407218;19;20017;-67
2023/10/16 09:25:15;;;;;;;3.55;1.88;;;;;;;7.52;81.81;101506.63;7407636;19;20074;-66
2023/10/16 09:27:44;;;;;;;5.65;1.80;;;;;;;7.59;81.98;101502.28;7406530;19;20014;-66
2023/10/16 09:30:18;;;;;;;7.85;1.88;;;;;;;7.66;81.73;101496.22;7406965;19;20540;-66
2023/10/16 09:32:46;;;;;;;7.47;1.48;;;;;;;7.72;81.93;101485.78;7407516;19;20021;-66
2023/10/16 09:35:14;;;;;;;6.60;1.60;;;;;;;7.82;81.55;101500.59;7405186;19;20018;-67
2023/10/16 09:37:47;;;;;;;3.75;1.67;;;;;;;7.91;81.25;101497.13;7405443;19;20019;-66
2023/10/16 09:40:35;;;;;;;5.68;1.55;;;;;;;7.95;80.76;101498.00;7397260;19;20014;-66
2023/10/16 09:43:12;;;;;;;5.13;1.55;;;;;;;7.96;79.63;101494.50;7400964;19;20018;-66
2023/10/16 09:45:46;;;;;;;6.22;1.75;;;;;;;7.95;79.49;101496.25;7400628;19;20031;-67
2023/10/16 09:48:19;;;;;;;4.43;1.67;;;;;;;7.93;79.18;101487.53;7398305;19;20014;-67
2023/10/16 09:50:48;;;;;;;6.60;1.67;;;;;;;7.96;80.25;101487.56;7400476;19;20019;-68
2023/10/16 09:53:18;;;;;;;2.63;1.20;;;;;;;7.99;80.07;101484.94;7400607;19;20014;-67
2023/10/16 09:55:52;;;;;;;6.15;1.42;;;;;;;8.08;80.29;101497.13;7397313;19;20010;-67
2023/10/16 09:58:23;;;;;;;5.20;2.28;;;;;;;8.17;79.91;101488.44;7396905;19;20019;-67
2023/10/16 10:01:06;;;;;;;4.15;1.42;;;;;;;8.29;78.35;101498.91;7399450;19;20069;-67
2023/10/16 10:03:36;;;;;;;5.10;1.30;;;;;;;8.43;78.95;101500.66;7396702;19;20029;-67
2023/10/16 10:06:20;;;;;;;5.25;1.70;;;;;;;8.56;78.47;101497.16;7399165;19;20011;-67
2023/10/16 10:09:22;;;;;;;4.45;1.20;;;;;;;8.69;78.20;101502.38;7396855;19;20018;-68
2023/10/16 10:11:45;;;;;;;;;;;;;;;8.83;77.63;101503.19;7399428;19;20017;-67
2023/10/16 10:14:39;;;;;;;7.25;1.48;;;;;;;8.97;77.42;101500.56;7396429;19;19915;-66
2023/10/16 10:17:19;;;;;;;6.65;2.00;;;;;;;9.06;76.57;101512.75;7398066;19;20014;-67
2023/10/16 10:19:54;;;;;;;5.68;2.10;;;;;;;9.08;76.27;101508.38;7397263;19;20013;-66
2023/10/16 10:22:27;;;;;;;3.83;1.33;;;;;;;9.12;76.27;101510.09;7397437;19;20022;-67
2023/10/16 10:25:12;;;;;;;6.28;2.10;;;;;;;9.15;75.13;101504.88;7399060;19;20021;-67
2023/10/16 10:27:43;;;;;;;5.68;1.42;;;;;;;9.18;75.50;101497.00;7398056;19;20033;-67
2023/10/16 10:30:19;;;;;;;5.32;1.40;;;;;;;9.19;75.13;101503.97;7398561;19;20010;-67
2023/10/16 10:32:58;;;;;;;5.75;2.38;;;;;;;9.19;74.30;101519.69;7398266;19;20018;-66
2023/10/16 10:35:29;;;;;;;2.80;1.40;;;;;;;9.18;74.74;101504.00;7399068;19;20035;-67
2023/10/16 10:38:17;;;;;;;5.72;1.45;;;;;;;9.21;74.53;101498.72;7397357;19;20485;-67
2023/10/16 10:41:16;;;;;;;5.47;1.23;;;;;;;9.24;73.37;101504.84;7396880;19;20018;-67
2023/10/16 10:43:49;;;;;;;4.45;1.52;;;;;;;9.28;74.85;101503.06;7398016;19;20031;-67
2023/10/16 10:46:26;;;;;;;4.85;1.40;;;;;;;9.35;73.71;101512.66;7397253;19;20481;-67
2023/10/16 10:48:57;;;;;;;8.45;2.08;;;;;;;9.38;74.29;101507.38;7395287;19;20371;-66
2023/10/16 10:51:29;;;;;;;4.07;1.65;;;;;;;9.43;74.47;101504.75;7395167;19;20094;-67
2023/10/16 10:53:59;;;;;;;9.25;3.25;;;;;;;9.48;74.63;101502.97;7398116;19;20031;-67
2023/10/16 10:56:40;;;;;;;5.90;1.77;;;;;;;9.51;73.64;101496.84;7397173;19;20007;-67
2023/10/16 10:59:10;;;;;;;6.85;1.60;;;;;;;9.54;74.05;101500.34;7397475;19;20027;-67
2023/10/16 11:01:50;;;;;;;6.65;1.25;;;;;;;9.60;74.05;101489.81;7395475;19;20030;-67
2023/10/16 11:04:21;;;;;;;3.17;1.15;;;;;;;9.66;73.84;101485.44;7396916;19;20433;-67
2023/10/16 11:06:54;;;;;;;5.10;1.40;;;;;;;9.72;73.81;101488.00;7397129;19;20024;-68
2023/10/16 11:09:26;;;;;;;3.75;1.40;;;;;;;9.78;73.37;101487.94;7396632;19;20491;-68
2023/10/16 11:11:55;;;;;;;8.18;2.90;;;;;;;9.84;73.32;101501.00;7396007;19;20014;-67
2023/10/16 11:14:36;;;;;;;6.18;1.85;;;;;;;9.88;69.87;101496.63;7393941;19;20493;-67
2023/10/16 11:17:05;;;;;;;5.20;1.55;;;;;;;9.93;71.95;101482.63;7394140;19;20010;-66
2023/10/16 11:19:50;;;;;;;6.22;2.38;;;;;;;9.99;70.19;101493.94;7397018;19;20471;-66
2023/10/16 11:22:21;;;;;;;4.47;1.15;;;;;;;10.01;70.87;101486.91;7394766;19;20477;-66
2023/10/16 11:24:51;;;;;;;4.57;1.20;;;;;;;10.00;69.52;101480.81;7396057;19;20027;-68
2023/10/16 11:27:20;;;;;;;5.95;1.10;;;;;;;10.06;70.49;101480.78;7396025;19;20377;-66
2023/10/16 11:29:52;;;;;;;3.70;1.17;;;;;;;10.11;70.60;101478.97;7394177;19;20050;-66
2023/10/16 11:32:25;;;;;;;2.05;0.80;;;;;;;10.15;70.39;101478.94;7396600;19;20018;-67
2023/10/16 11:35:13;;;;;;;1.98;0.70;;;;;;;10.17;69.46;101483.28;7396410;19;20027;-66
2023/10/16 11:37:43;;;;;;;3.28;1.00;;;;;;;10.21;69.61;101479.78;7394708;19;20041;-67
2023/10/16 11:40:31;;;;;;;1.48;0.80;;;;;;;10.23;68.92;101471.91;7395063;19;20032;-66
2023/10/16 11:43:00;;;;;;;2.42;1.05;;;;;;;10.27;68.72;101481.47;7396507;19;20007;-67
2023/10/16 11:45:32;;;;;;;4.55;1.52;;;;;;;10.29;68.40;101482.34;7395877;19;20082;-67
2023/10/16 11:50:58;;;;;;;3.53;1.00;;;;;;;10.31;66.78;101479.69;7393321;19;20018;-67
2023/10/16 11:53:28;;;;;;;3.17;1.13;;;;;;;10.32;67.58;101474.44;7396443;19;20378;-67
2023/10/16 11:55:57;;;;;;;3.42;1.00;;;;;;;10.30;67.63;101467.47;7395779;19;20018;-67
2023/10/16 11:58:25;;;;;;;4.50;1.67;;;;;;;10.27;68.16;101463.09;7394359;19;20074;-66
2023/10/16 12:01:07;;;;;;;2.05;1.05;;;;;;;10.30;68.21;101462.22;7393901;19;20022;-66
2023/10/16 12:03:37;;;;;;;3.22;0.85;;;;;;;10.31;67.40;101469.19;7392291;19;20011;-66
2023/10/16 12:06:13;;;;;;;3.35;1.27;;;;;;;10.31;67.20;101474.44;7394952;19;20035;-66
2023/10/16 12:08:44;;;;;;;2.03;1.00;;;;;;;10.24;65.97;101469.25;7393011;19;20027;-66
2023/10/16 12:11:14;;;;;;;2.60;0.80;;;;;;;10.27;66.66;101474.50;7395382;19;20018;-67
2023/10/16 12:13:42;;;;;;;2.65;0.90;;;;;;;10.34;66.86;101479.69;7393975;19;20025;-67
2023/10/16 12:16:11;;;;;;;4.40;1.02;;;;;;;10.41;67.38;101466.53;7395507;19;20027;-67
2023/10/16 12:18:40;;;;;;;4.05;1.05;;;;;;;10.50;67.08;101470.81;7392549;19;20069;-68
2023/10/16 12:21:16;;;;;;;2.13;0.77;;;;;;;10.56;67.09;101460.25;7392647;19;20010;-67
2023/10/16 12:23:44;;;;;;;4.22;1.08;;;;;;;10.65;66.95;101461.91;7392703;19;20011;-67
2023/10/16 12:26:13;;;;;;;2.80;1.00;;;;;;;10.78;66.67;101470.53;7393540;19;20383;-66
2023/10/16 12:28:44;;;;;;;4.32;1.20;;;;;;;10.92;66.40;101459.88;7393041;19;20070;-67
2023/10/16 12:31:13;;;;;;;1.30;0.95;;;;;;;10.98;65.01;101456.28;7394113;19;20081;-67
2023/10/16 12:33:41;;;;;;;3.33;1.30;;;;;;;11.10;65.15;101465.78;7394322;19;20022;-67
2023/10/16 12:36:12;;;;;;;2.67;1.05;;;;;;;11.28;64.44;101465.53;7394139;19;20015;-67
2023/10/16 12:38:41;;;;;;;2.05;1.10;;;;;;;11.43;64.11;101450.47;7393478;19;20078;-68
2023/10/16 12:41:10;;;;;;;4.03;1.55;;;;;;;11.57;64.53;101457.28;7392981;19;20014;-66
2023/10/16 12:43:40;;;;;;;3.03;1.00;;;;;;;11.72;64.33;101452.66;7394103;19;20027;-67
2023/10/16 12:46:08;;;;;;;5.80;1.90;;;;;;;11.82;63.67;101456.88;7394841;19;20011;-67
2023/10/16 12:48:37;;;;;;;3.20;1.02;;;;;;;11.97;62.56;101454.97;7392023;19;20017;-67
2023/10/16 12:51:07;;;;;;;2.67;1.08;;;;;;;12.12;62.14;101459.06;7391900;19;20418;-67
2023/10/16 12:53:38;;;;;;;3.08;1.10;;;;;;;12.30;60.43;101452.66;7391789;19;20003;-66
2023/10/16 12:56:08;;;;;;;2.63;0.90;;;;;;;12.41;57.70;101458.59;7391525;19;20485;-67
2023/10/16 12:58:37;;;;;;;3.33;0.80;;;;;;;12.40;59.26;101451.59;7391295;19;20374;-67
2023/10/16 13:01:10;;;;;;;1.23;0.73;;;;;;;12.44;59.44;101458.53;7391561;19;20069;-66
2023/10/16 13:03:40;;;;;;;2.58;1.10;;;;;;;12.25;56.54;101460.63;7394019;19;20017;-66
2023/10/16 13:06:08;;;;;;;1.98;1.30;;;;;;;12.24;59.02;101458.03;7397951;19;20010;-67
2023/10/16 13:08:39;;;;;;;4.97;0.85;;;;;;;12.22;59.51;101444.91;7391752;19;20011;-65
2023/10/16 13:11:08;;;;;;;3.35;1.20;;;;;;;12.29;60.39;101450.91;7390798;19;20512;-66
2023/10/16 13:13:36;;;;;;;3.65;0.88;;;;;;;12.28;59.32;101473.69;7395741;19;20014;-66
2023/10/16 13:16:11;;;;;;;2.47;1.02;;;;;;;12.12;58.20;101453.81;7399353;19;20027;-66
2023/10/16 13:18:40;;;;;;;3.08;1.00;;;;;;;12.05;60.73;101451.28;7397157;19;20122;-65
2023/10/16 13:21:13;;;;;;;3.42;1.35;;;;;;;11.98;61.04;101456.66;7398183;19;20368;-66